sensor_id;sensor_type;location;lat;lon;timestamp;P1;durP1;ratioP1;P2;durP2;ratioP2
26906;SDS011;14472;56.880;16.658;2023-08-30T00:00:13;5.30;;;2.00;;
26906;SDS011;14472;56.880;16.658;2023-08-30T00:02:39;3.38;;;2.30;;
26906;SDS011;14472;56.880;16.658;2023-08-30T00:05:04;3.50;;;2.00;;
26906;SDS011;14472;56.880;16.658;2023-08-30T00:07:30;3.38;;;2.10;;
26906;SDS011;14472;56.880;16.658;2023-08-30T00:09:57;4.53;;;2.50;;
26906;SDS011;14472;56.880;16.658;2023-08-30T00:12:23;4.45;;;2.22;;
26906;SDS011;14472;56.880;16.658;2023-08-30T00:14:49;3.55;;;2.50;;
26906;SDS011;14472;56.880;16.658;2023-08-30T00:17:16;4.10;;;2.58;;
26906;SDS011;14472;56.880;16.658;2023-08-30T00:19:41;3.95;;;2.45;;
26906;SDS011;14472;56.880;16.658;2023-08-30T00:22:07;3.90;;;2.60;;
26906;SDS011;14472;56.880;16.658;2023-08-30T00:24:33;3.58;;;2.47;;
26906;SDS011;14472;56.880;16.658;2023-08-30T00:27:00;3.92;;;2.60;;
26906;SDS011;14472;56.880;16.658;2023-08-30T00:29:27;3.60;;;2.45;;
26906;SDS011;14472;56.880;16.658;2023-08-30T00:31:53;3.03;;;2.50;;
26906;SDS011;14472;56.880;16.658;2023-08-30T00:34:19;5.45;;;2.80;;
26906;SDS011;14472;56.880;16.658;2023-08-30T00:36:45;3.20;;;2.58;;
26906;SDS011;14472;56.880;16.658;2023-08-30T00:39:10;3.10;;;2.40;;
26906;SDS011;14472;56.880;16.658;2023-08-30T00:41:36;4.13;;;2.40;;
26906;SDS011;14472;56.880;16.658;2023-08-30T00:44:02;3.55;;;2.50;;
26906;SDS011;14472;56.880;16.658;2023-08-30T00:46:28;2.50;;;1.60;;
26906;SDS011;14472;56.880;16.658;2023-08-30T00:48:55;2.75;;;1.45;;
26906;SDS011;14472;56.880;16.658;2023-08-30T00:51:21;4.93;;;1.60;;
26906;SDS011;14472;56.880;16.658;2023-08-30T00:53:47;4.07;;;2.00;;
26906;SDS011;14472;56.880;16.658;2023-08-30T00:56:14;3.00;;;1.73;;
26906;SDS011;14472;56.880;16.658;2023-08-30T00:58:40;1.85;;;1.50;;
26906;SDS011;14472;56.880;16.658;2023-08-30T01:01:06;4.05;;;1.50;;
26906;SDS011;14472;56.880;16.658;2023-08-30T01:03:33;1.85;;;1.27;;
26906;SDS011;14472;56.880;16.658;2023-08-30T01:05:59;4.40;;;1.40;;
26906;SDS011;14472;56.880;16.658;2023-08-30T01:08:25;1.90;;;1.40;;
26906;SDS011;14472;56.880;16.658;2023-08-30T01:13:46;4.25;;;2.10;;
26906;SDS011;14472;56.880;16.658;2023-08-30T01:16:16;3.05;;;1.48;;
26906;SDS011;14472;56.880;16.658;2023-08-30T01:18:45;3.13;;;1.65;;
26906;SDS011;14472;56.880;16.658;2023-08-30T01:21:13;3.33;;;1.63;;
26906;SDS011;14472;56.880;16.658;2023-08-30T01:24:09;2.30;;;1.60;;
26906;SDS011;14472;56.880;16.658;2023-08-30T01:26:45;2.67;;;1.63;;
26906;SDS011;14472;56.880;16.658;2023-08-30T01:29:36;4.82;;;1.80;;
26906;SDS011;14472;56.880;16.658;2023-08-30T01:32:08;2.03;;;1.42;;
26906;SDS011;14472;56.880;16.658;2023-08-30T01:34:35;3.13;;;1.90;;
26906;SDS011;14472;56.880;16.658;2023-08-30T01:37:04;2.95;;;1.70;;
26906;SDS011;14472;56.880;16.658;2023-08-30T01:39:34;3.17;;;1.75;;
26906;SDS011;14472;56.880;16.658;2023-08-30T01:42:05;5.72;;;2.03;;
26906;SDS011;14472;56.880;16.658;2023-08-30T01:44:32;3.20;;;1.70;;
26906;SDS011;14472;56.880;16.658;2023-08-30T01:46:59;3.42;;;2.00;;
26906;SDS011;14472;56.880;16.658;2023-08-30T01:49:26;2.67;;;1.88;;
26906;SDS011;14472;56.880;16.658;2023-08-30T01:51:53;2.25;;;1.95;;
26906;SDS011;14472;56.880;16.658;2023-08-30T01:54:20;3.28;;;2.30;;
26906;SDS011;14472;56.880;16.658;2023-08-30T01:56:46;1.95;;;1.75;;
26906;SDS011;14472;56.880;16.658;2023-08-30T01:59:12;3.25;;;1.50;;
26906;SDS011;14472;56.880;16.658;2023-08-30T02:01:38;2.15;;;1.50;;
26906;SDS011;14472;56.880;16.658;2023-08-30T02:04:04;2.88;;;1.45;;
26906;SDS011;14472;56.880;16.658;2023-08-30T02:06:35;3.70;;;1.58;;
26906;SDS011;14472;56.880;16.658;2023-08-30T02:09:14;2.03;;;1.20;;
26906;SDS011;14472;56.880;16.658;2023-08-30T02:11:45;2.05;;;1.40;;
26906;SDS011;14472;56.880;16.658;2023-08-30T02:14:13;1.52;;;1.23;;
26906;SDS011;14472;56.880;16.658;2023-08-30T02:16:42;1.60;;;1.50;;
26906;SDS011;14472;56.880;16.658;2023-08-30T02:19:11;2.58;;;1.75;;
26906;SDS011;14472;56.880;16.658;2023-08-30T02:21:37;3.42;;;1.80;;
26906;SDS011;14472;56.880;16.658;2023-08-30T02:24:04;2.17;;;1.70;;
26906;SDS011;14472;56.880;16.658;2023-08-30T02:26:30;1.40;;;1.30;;
26906;SDS011;14472;56.880;16.658;2023-08-30T02:28:56;1.70;;;1.30;;
26906;SDS011;14472;56.880;16.658;2023-08-30T02:31:21;2.38;;;1.70;;
26906;SDS011;14472;56.880;16.658;2023-08-30T02:33:47;4.05;;;1.67;;
26906;SDS011;14472;56.880;16.658;2023-08-30T02:36:13;2.95;;;1.60;;
26906;SDS011;14472;56.880;16.658;2023-08-30T02:38:38;1.90;;;1.60;;
26906;SDS011;14472;56.880;16.658;2023-08-30T02:41:04;3.53;;;2.00;;
26906;SDS011;14472;56.880;16.658;2023-08-30T02:43:30;2.20;;;1.50;;
26906;SDS011;14472;56.880;16.658;2023-08-30T02:45:55;1.58;;;1.48;;
26906;SDS011;14472;56.880;16.658;2023-08-30T02:48:21;3.67;;;1.65;;
26906;SDS011;14472;56.880;16.658;2023-08-30T02:50:47;3.45;;;1.60;;
26906;SDS011;14472;56.880;16.658;2023-08-30T02:53:13;3.38;;;1.77;;
26906;SDS011;14472;56.880;16.658;2023-08-30T02:55:38;2.15;;;1.60;;
26906;SDS011;14472;56.880;16.658;2023-08-30T02:58:04;4.40;;;1.98;;
26906;SDS011;14472;56.880;16.658;2023-08-30T03:00:30;2.75;;;1.52;;
26906;SDS011;14472;56.880;16.658;2023-08-30T03:02:55;3.72;;;1.80;;
26906;SDS011;14472;56.880;16.658;2023-08-30T03:05:21;2.97;;;1.90;;
26906;SDS011;14472;56.880;16.658;2023-08-30T03:07:47;2.63;;;1.63;;
26906;SDS011;14472;56.880;16.658;2023-08-30T03:10:12;3.83;;;1.88;;
26906;SDS011;14472;56.880;16.658;2023-08-30T03:12:38;3.78;;;1.60;;
26906;SDS011;14472;56.880;16.658;2023-08-30T03:15:04;2.28;;;1.60;;
26906;SDS011;14472;56.880;16.658;2023-08-30T03:17:30;3.85;;;1.65;;
26906;SDS011;14472;56.880;16.658;2023-08-30T03:19:56;2.90;;;1.60;;
26906;SDS011;14472;56.880;16.658;2023-08-30T03:22:22;2.60;;;1.88;;
26906;SDS011;14472;56.880;16.658;2023-08-30T03:24:47;3.30;;;1.45;;
26906;SDS011;14472;56.880;16.658;2023-08-30T03:27:15;2.83;;;1.40;;
26906;SDS011;14472;56.880;16.658;2023-08-30T03:29:41;2.13;;;1.58;;
26906;SDS011;14472;56.880;16.658;2023-08-30T03:32:07;2.75;;;1.60;;
26906;SDS011;14472;56.880;16.658;2023-08-30T03:34:33;2.13;;;1.50;;
26906;SDS011;14472;56.880;16.658;2023-08-30T03:36:59;4.00;;;1.60;;
26906;SDS011;14472;56.880;16.658;2023-08-30T03:39:24;3.60;;;1.58;;
26906;SDS011;14472;56.880;16.658;2023-08-30T03:41:50;7.07;;;2.13;;
26906;SDS011;14472;56.880;16.658;2023-08-30T03:44:16;3.03;;;1.80;;
26906;SDS011;14472;56.880;16.658;2023-08-30T03:46:41;3.83;;;1.90;;
26906;SDS011;14472;56.880;16.658;2023-08-30T03:49:07;3.65;;;1.70;;
26906;SDS011;14472;56.880;16.658;2023-08-30T03:51:33;3.55;;;1.90;;
26906;SDS011;14472;56.880;16.658;2023-08-30T03:53:59;4.97;;;2.15;;
26906;SDS011;14472;56.880;16.658;2023-08-30T03:56:25;5.45;;;1.95;;
26906;SDS011;14472;56.880;16.658;2023-08-30T03:58:51;3.45;;;2.10;;
26906;SDS011;14472;56.880;16.658;2023-08-30T04:01:16;3.63;;;2.25;;
26906;SDS011;14472;56.880;16.658;2023-08-30T04:03:42;3.90;;;1.83;;
26906;SDS011;14472;56.880;16.658;2023-08-30T04:06:08;3.17;;;1.85;;
26906;SDS011;14472;56.880;16.658;2023-08-30T04:08:33;4.55;;;2.20;;
26906;SDS011;14472;56.880;16.658;2023-08-30T04:10:59;3.78;;;2.10;;
26906;SDS011;14472;56.880;16.658;2023-08-30T04:13:27;6.45;;;2.30;;
26906;SDS011;14472;56.880;16.658;2023-08-30T04:15:53;3.75;;;1.98;;
26906;SDS011;14472;56.880;16.658;2023-08-30T04:18:18;6.60;;;2.58;;
26906;SDS011;14472;56.880;16.658;2023-08-30T04:20:44;4.38;;;2.72;;
26906;SDS011;14472;56.880;16.658;2023-08-30T04:23:11;5.72;;;3.00;;
26906;SDS011;14472;56.880;16.658;2023-08-30T04:25:37;4.88;;;3.20;;
26906;SDS011;14472;56.880;16.658;2023-08-30T04:28:03;3.90;;;2.80;;
26906;SDS011;14472;56.880;16.658;2023-08-30T04:30:29;3.70;;;2.60;;
26906;SDS011;14472;56.880;16.658;2023-08-30T04:32:54;4.93;;;2.63;;
26906;SDS011;14472;56.880;16.658;2023-08-30T04:35:20;6.50;;;2.40;;
26906;SDS011;14472;56.880;16.658;2023-08-30T04:37:47;6.18;;;2.25;;
26906;SDS011;14472;56.880;16.658;2023-08-30T04:40:13;6.22;;;2.60;;
26906;SDS011;14472;56.880;16.658;2023-08-30T04:42:39;6.03;;;2.28;;
26906;SDS011;14472;56.880;16.658;2023-08-30T04:45:05;4.82;;;2.08;;
26906;SDS011;14472;56.880;16.658;2023-08-30T04:47:32;3.15;;;1.83;;
26906;SDS011;14472;56.880;16.658;2023-08-30T04:49:58;3.33;;;1.90;;
26906;SDS011;14472;56.880;16.658;2023-08-30T04:52:25;2.58;;;1.80;;
26906;SDS011;14472;56.880;16.658;2023-08-30T04:54:50;4.53;;;1.90;;
26906;SDS011;14472;56.880;16.658;2023-08-30T04:57:16;4.90;;;1.95;;
26906;SDS011;14472;56.880;16.658;2023-08-30T04:59:43;4.55;;;2.10;;
26906;SDS011;14472;56.880;16.658;2023-08-30T05:02:09;6.65;;;2.47;;
26906;SDS011;14472;56.880;16.658;2023-08-30T05:04:35;4.60;;;1.95;;
26906;SDS011;14472;56.880;16.658;2023-08-30T05:07:01;2.22;;;1.90;;
26906;SDS011;14472;56.880;16.658;2023-08-30T05:09:28;4.18;;;2.25;;
26906;SDS011;14472;56.880;16.658;2023-08-30T05:11:55;3.95;;;2.38;;
26906;SDS011;14472;56.880;16.658;2023-08-30T05:14:21;3.47;;;2.00;;
26906;SDS011;14472;56.880;16.658;2023-08-30T05:16:46;4.47;;;2.20;;
26906;SDS011;14472;56.880;16.658;2023-08-30T05:19:13;4.75;;;2.25;;
26906;SDS011;14472;56.880;16.658;2023-08-30T05:21:41;5.68;;;1.92;;
26906;SDS011;14472;56.880;16.658;2023-08-30T05:24:06;4.47;;;2.13;;
26906;SDS011;14472;56.880;16.658;2023-08-30T05:26:32;4.15;;;1.80;;
26906;SDS011;14472;56.880;16.658;2023-08-30T05:28:58;4.13;;;2.20;;
26906;SDS011;14472;56.880;16.658;2023-08-30T05:31:24;4.30;;;2.05;;
26906;SDS011;14472;56.880;16.658;2023-08-30T05:33:50;3.03;;;2.10;;
26906;SDS011;14472;56.880;16.658;2023-08-30T05:36:16;5.53;;;2.13;;
26906;SDS011;14472;56.880;16.658;2023-08-30T05:38:42;2.97;;;1.70;;
26906;SDS011;14472;56.880;16.658;2023-08-30T05:41:08;4.25;;;1.88;;
26906;SDS011;14472;56.880;16.658;2023-08-30T05:43:34;4.63;;;2.50;;
26906;SDS011;14472;56.880;16.658;2023-08-30T05:46:00;2.13;;;1.75;;
26906;SDS011;14472;56.880;16.658;2023-08-30T05:48:27;4.32;;;1.88;;
26906;SDS011;14472;56.880;16.658;2023-08-30T05:50:56;3.83;;;1.77;;
26906;SDS011;14472;56.880;16.658;2023-08-30T05:53:22;2.47;;;1.60;;
26906;SDS011;14472;56.880;16.658;2023-08-30T05:55:48;3.28;;;1.70;;
26906;SDS011;14472;56.880;16.658;2023-08-30T05:58:14;3.15;;;1.60;;
26906;SDS011;14472;56.880;16.658;2023-08-30T06:00:40;3.55;;;1.63;;
26906;SDS011;14472;56.880;16.658;2023-08-30T06:03:06;2.45;;;1.42;;
26906;SDS011;14472;56.880;16.658;2023-08-30T06:05:33;3.53;;;1.67;;
26906;SDS011;14472;56.880;16.658;2023-08-30T06:07:59;3.13;;;1.70;;
26906;SDS011;14472;56.880;16.658;2023-08-30T06:10:25;3.83;;;1.63;;
26906;SDS011;14472;56.880;16.658;2023-08-30T06:12:52;3.67;;;1.50;;
26906;SDS011;14472;56.880;16.658;2023-08-30T06:15:18;2.03;;;1.35;;
26906;SDS011;14472;56.880;16.658;2023-08-30T06:17:44;1.88;;;1.40;;
26906;SDS011;14472;56.880;16.658;2023-08-30T06:20:11;3.60;;;1.40;;
26906;SDS011;14472;56.880;16.658;2023-08-30T06:22:37;3.67;;;1.58;;
26906;SDS011;14472;56.880;16.658;2023-08-30T06:25:03;2.47;;;1.50;;
26906;SDS011;14472;56.880;16.658;2023-08-30T06:27:29;2.20;;;1.45;;
26906;SDS011;14472;56.880;16.658;2023-08-30T06:29:55;2.38;;;1.33;;
26906;SDS011;14472;56.880;16.658;2023-08-30T06:32:21;3.20;;;1.50;;
26906;SDS011;14472;56.880;16.658;2023-08-30T06:34:46;4.18;;;2.00;;
26906;SDS011;14472;56.880;16.658;2023-08-30T06:37:12;4.85;;;2.20;;
26906;SDS011;14472;56.880;16.658;2023-08-30T06:39:38;4.00;;;2.70;;
26906;SDS011;14472;56.880;16.658;2023-08-30T06:42:03;2.67;;;2.10;;
26906;SDS011;14472;56.880;16.658;2023-08-30T06:44:29;3.63;;;2.70;;
26906;SDS011;14472;56.880;16.658;2023-08-30T06:46:58;4.35;;;2.95;;
26906;SDS011;14472;56.880;16.658;2023-08-30T06:49:24;4.55;;;3.13;;
26906;SDS011;14472;56.880;16.658;2023-08-30T06:51:50;4.47;;;2.50;;
26906;SDS011;14472;56.880;16.658;2023-08-30T06:54:15;4.13;;;2.90;;
26906;SDS011;14472;56.880;16.658;2023-08-30T06:56:45;5.10;;;2.60;;
26906;SDS011;14472;56.880;16.658;2023-08-30T06:59:32;4.95;;;2.97;;
26906;SDS011;14472;56.880;16.658;2023-08-30T07:01:58;4.13;;;3.05;;
26906;SDS011;14472;56.880;16.658;2023-08-30T07:04:23;5.25;;;3.30;;
26906;SDS011;14472;56.880;16.658;2023-08-30T07:06:50;3.33;;;2.60;;
26906;SDS011;14472;56.880;16.658;2023-08-30T07:09:16;5.65;;;3.00;;
26906;SDS011;14472;56.880;16.658;2023-08-30T07:11:42;5.05;;;2.80;;
26906;SDS011;14472;56.880;16.658;2023-08-30T07:14:12;7.85;;;3.08;;
26906;SDS011;14472;56.880;16.658;2023-08-30T07:16:38;5.00;;;3.45;;
26906;SDS011;14472;56.880;16.658;2023-08-30T07:19:04;3.70;;;3.33;;
26906;SDS011;14472;56.880;16.658;2023-08-30T07:21:30;5.78;;;3.58;;
26906;SDS011;14472;56.880;16.658;2023-08-30T07:23:56;7.60;;;3.03;;
26906;SDS011;14472;56.880;16.658;2023-08-30T07:26:23;5.95;;;3.42;;
26906;SDS011;14472;56.880;16.658;2023-08-30T07:28:48;4.32;;;3.40;;
26906;SDS011;14472;56.880;16.658;2023-08-30T07:31:14;5.22;;;3.65;;
26906;SDS011;14472;56.880;16.658;2023-08-30T07:33:43;4.70;;;3.55;;
26906;SDS011;14472;56.880;16.658;2023-08-30T07:36:11;6.13;;;3.80;;
26906;SDS011;14472;56.880;16.658;2023-08-30T07:38:37;4.47;;;3.80;;
26906;SDS011;14472;56.880;16.658;2023-08-30T07:41:03;8.10;;;3.70;;
26906;SDS011;14472;56.880;16.658;2023-08-30T07:43:29;4.75;;;3.30;;
26906;SDS011;14472;56.880;16.658;2023-08-30T07:45:54;4.85;;;3.10;;
26906;SDS011;14472;56.880;16.658;2023-08-30T07:48:21;6.45;;;3.08;;
26906;SDS011;14472;56.880;16.658;2023-08-30T07:50:47;5.60;;;2.83;;
26906;SDS011;14472;56.880;16.658;2023-08-30T07:53:13;4.93;;;3.05;;
26906;SDS011;14472;56.880;16.658;2023-08-30T07:55:38;4.60;;;2.90;;
26906;SDS011;14472;56.880;16.658;2023-08-30T07:58:05;3.63;;;2.67;;
26906;SDS011;14472;56.880;16.658;2023-08-30T08:00:35;5.65;;;2.53;;
26906;SDS011;14472;56.880;16.658;2023-08-30T08:03:02;5.70;;;2.72;;
26906;SDS011;14472;56.880;16.658;2023-08-30T08:05:28;4.63;;;2.58;;
26906;SDS011;14472;56.880;16.658;2023-08-30T08:07:53;4.82;;;3.00;;
26906;SDS011;14472;56.880;16.658;2023-08-30T08:10:24;4.70;;;2.47;;
26906;SDS011;14472;56.880;16.658;2023-08-30T08:12:50;4.40;;;2.55;;
26906;SDS011;14472;56.880;16.658;2023-08-30T08:15:15;4.18;;;2.50;;
26906;SDS011;14472;56.880;16.658;2023-08-30T08:17:41;3.67;;;2.40;;
26906;SDS011;14472;56.880;16.658;2023-08-30T08:20:07;4.15;;;2.72;;
26906;SDS011;14472;56.880;16.658;2023-08-30T08:22:33;3.55;;;2.40;;
26906;SDS011;14472;56.880;16.658;2023-08-30T08:24:58;3.83;;;2.58;;
26906;SDS011;14472;56.880;16.658;2023-08-30T08:27:24;4.95;;;2.70;;
26906;SDS011;14472;56.880;16.658;2023-08-30T08:29:50;3.38;;;2.50;;
26906;SDS011;14472;56.880;16.658;2023-08-30T08:32:16;4.30;;;2.95;;
26906;SDS011;14472;56.880;16.658;2023-08-30T08:34:42;3.15;;;2.67;;
26906;SDS011;14472;56.880;16.658;2023-08-30T08:37:07;4.85;;;2.75;;
26906;SDS011;14472;56.880;16.658;2023-08-30T08:39:33;5.40;;;2.80;;
26906;SDS011;14472;56.880;16.658;2023-08-30T08:41:59;5.25;;;2.70;;
26906;SDS011;14472;56.880;16.658;2023-08-30T08:44:26;4.80;;;2.78;;
26906;SDS011;14472;56.880;16.658;2023-08-30T08:46:56;4.18;;;2.75;;
26906;SDS011;14472;56.880;16.658;2023-08-30T08:49:23;4.97;;;2.85;;
26906;SDS011;14472;56.880;16.658;2023-08-30T08:51:53;4.00;;;2.17;;
26906;SDS011;14472;56.880;16.658;2023-08-30T08:54:19;4.60;;;2.38;;
26906;SDS011;14472;56.880;16.658;2023-08-30T08:56:45;2.20;;;2.00;;
26906;SDS011;14472;56.880;16.658;2023-08-30T08:59:11;3.08;;;2.05;;
26906;SDS011;14472;56.880;16.658;2023-08-30T09:01:41;4.50;;;2.20;;
26906;SDS011;14472;56.880;16.658;2023-08-30T09:04:10;3.65;;;2.03;;
26906;SDS011;14472;56.880;16.658;2023-08-30T09:06:37;2.78;;;1.60;;
26906;SDS011;14472;56.880;16.658;2023-08-30T09:09:08;2.90;;;1.88;;
26906;SDS011;14472;56.880;16.658;2023-08-30T09:11:34;2.42;;;1.80;;
26906;SDS011;14472;56.880;16.658;2023-08-30T09:14:00;3.33;;;1.90;;
26906;SDS011;14472;56.880;16.658;2023-08-30T09:16:26;3.30;;;1.42;;
26906;SDS011;14472;56.880;16.658;2023-08-30T09:18:59;3.35;;;1.63;;
26906;SDS011;14472;56.880;16.658;2023-08-30T09:21:26;2.28;;;1.30;;
26906;SDS011;14472;56.880;16.658;2023-08-30T09:24:02;2.13;;;1.45;;
26906;SDS011;14472;56.880;16.658;2023-08-30T09:26:29;3.70;;;1.60;;
26906;SDS011;14472;56.880;16.658;2023-08-30T09:29:05;2.17;;;1.63;;
26906;SDS011;14472;56.880;16.658;2023-08-30T09:31:35;5.53;;;1.60;;
26906;SDS011;14472;56.880;16.658;2023-08-30T09:34:02;2.78;;;1.48;;
26906;SDS011;14472;56.880;16.658;2023-08-30T09:36:35;2.83;;;1.58;;
26906;SDS011;14472;56.880;16.658;2023-08-30T09:39:12;3.25;;;1.55;;
26906;SDS011;14472;56.880;16.658;2023-08-30T09:41:42;2.95;;;1.60;;
26906;SDS011;14472;56.880;16.658;2023-08-30T09:44:15;2.35;;;1.38;;
26906;SDS011;14472;56.880;16.658;2023-08-30T09:46:50;2.75;;;1.30;;
26906;SDS011;14472;56.880;16.658;2023-08-30T09:49:21;2.67;;;1.45;;
26906;SDS011;14472;56.880;16.658;2023-08-30T09:51:49;2.08;;;1.48;;
26906;SDS011;14472;56.880;16.658;2023-08-30T09:56:49;3.33;;;1.52;;
26906;SDS011;14472;56.880;16.658;2023-08-30T09:59:17;3.13;;;1.55;;
26906;SDS011;14472;56.880;16.658;2023-08-30T10:01:44;1.98;;;1.50;;
26906;SDS011;14472;56.880;16.658;2023-08-30T10:04:13;2.38;;;1.40;;
26906;SDS011;14472;56.880;16.658;2023-08-30T10:06:40;2.78;;;1.60;;
26906;SDS011;14472;56.880;16.658;2023-08-30T10:09:07;3.15;;;1.60;;
26906;SDS011;14472;56.880;16.658;2023-08-30T10:11:37;2.65;;;1.48;;
26906;SDS011;14472;56.880;16.658;2023-08-30T10:14:04;1.92;;;1.33;;
26906;SDS011;14472;56.880;16.658;2023-08-30T10:16:43;1.92;;;1.55;;
26906;SDS011;14472;56.880;16.658;2023-08-30T10:19:16;1.85;;;1.50;;
26906;SDS011;14472;56.880;16.658;2023-08-30T10:21:48;2.95;;;1.60;;
26906;SDS011;14472;56.880;16.658;2023-08-30T10:24:29;2.72;;;1.40;;
26906;SDS011;14472;56.880;16.658;2023-08-30T10:27:16;2.42;;;1.63;;
26906;SDS011;14472;56.880;16.658;2023-08-30T10:29:43;1.85;;;1.48;;
26906;SDS011;14472;56.880;16.658;2023-08-30T10:32:10;2.25;;;1.40;;
26906;SDS011;14472;56.880;16.658;2023-08-30T10:34:36;2.90;;;1.60;;
26906;SDS011;14472;56.880;16.658;2023-08-30T10:37:03;3.22;;;1.52;;
26906;SDS011;14472;56.880;16.658;2023-08-30T10:39:34;2.00;;;1.67;;
26906;SDS011;14472;56.880;16.658;2023-08-30T10:42:10;2.90;;;1.50;;
26906;SDS011;14472;56.880;16.658;2023-08-30T10:44:49;4.25;;;1.70;;
26906;SDS011;14472;56.880;16.658;2023-08-30T10:47:27;2.15;;;1.50;;
26906;SDS011;14472;56.880;16.658;2023-08-30T10:49:54;2.25;;;1.67;;
26906;SDS011;14472;56.880;16.658;2023-08-30T10:52:21;2.92;;;1.60;;
26906;SDS011;14472;56.880;16.658;2023-08-30T10:54:47;1.55;;;1.45;;
26906;SDS011;14472;56.880;16.658;2023-08-30T10:57:20;2.53;;;1.70;;
26906;SDS011;14472;56.880;16.658;2023-08-30T11:00:05;1.92;;;1.63;;
26906;SDS011;14472;56.880;16.658;2023-08-30T11:02:45;2.55;;;1.67;;
26906;SDS011;14472;56.880;16.658;2023-08-30T11:05:11;2.78;;;1.73;;
26906;SDS011;14472;56.880;16.658;2023-08-30T11:07:37;1.58;;;1.48;;
26906;SDS011;14472;56.880;16.658;2023-08-30T11:10:04;2.45;;;1.58;;
26906;SDS011;14472;56.880;16.658;2023-08-30T11:12:31;2.03;;;1.77;;
26906;SDS011;14472;56.880;16.658;2023-08-30T11:14:57;5.28;;;1.80;;
26906;SDS011;14472;56.880;16.658;2023-08-30T11:17:23;2.70;;;1.90;;
26906;SDS011;14472;56.880;16.658;2023-08-30T11:19:51;3.53;;;1.73;;
26906;SDS011;14472;56.880;16.658;2023-08-30T11:22:22;3.55;;;1.88;;
26906;SDS011;14472;56.880;16.658;2023-08-30T11:24:49;4.40;;;1.80;;
26906;SDS011;14472;56.880;16.658;2023-08-30T11:27:18;2.20;;;1.73;;
26906;SDS011;14472;56.880;16.658;2023-08-30T11:29:44;2.42;;;1.80;;
26906;SDS011;14472;56.880;16.658;2023-08-30T11:32:09;2.00;;;1.70;;
26906;SDS011;14472;56.880;16.658;2023-08-30T11:34:35;1.88;;;1.50;;
26906;SDS011;14472;56.880;16.658;2023-08-30T11:37:01;2.17;;;1.42;;
26906;SDS011;14472;56.880;16.658;2023-08-30T11:39:29;2.45;;;1.60;;
26906;SDS011;14472;56.880;16.658;2023-08-30T11:41:56;3.67;;;1.40;;
26906;SDS011;14472;56.880;16.658;2023-08-30T11:44:26;4.47;;;1.77;;
26906;SDS011;14472;56.880;16.658;2023-08-30T11:46:59;2.67;;;1.38;;
26906;SDS011;14472;56.880;16.658;2023-08-30T11:49:28;1.35;;;1.20;;
26906;SDS011;14472;56.880;16.658;2023-08-30T11:51:55;1.48;;;1.27;;
26906;SDS011;14472;56.880;16.658;2023-08-30T11:54:23;2.33;;;1.58;;
26906;SDS011;14472;56.880;16.658;2023-08-30T11:56:50;1.40;;;1.30;;
26906;SDS011;14472;56.880;16.658;2023-08-30T11:59:19;1.13;;;1.00;;
26906;SDS011;14472;56.880;16.658;2023-08-30T12:01:47;2.53;;;1.30;;
26906;SDS011;14472;56.880;16.658;2023-08-30T12:04:21;2.53;;;1.30;;
26906;SDS011;14472;56.880;16.658;2023-08-30T12:06:51;2.92;;;1.40;;
26906;SDS011;14472;56.880;16.658;2023-08-30T12:09:18;2.92;;;1.30;;
26906;SDS011;14472;56.880;16.658;2023-08-30T12:11:47;2.92;;;1.40;;
26906;SDS011;14472;56.880;16.658;2023-08-30T12:14:15;2.97;;;1.27;;
26906;SDS011;14472;56.880;16.658;2023-08-30T12:16:42;1.50;;;1.05;;
26906;SDS011;14472;56.880;16.658;2023-08-30T12:19:10;2.35;;;1.02;;
26906;SDS011;14472;56.880;16.658;2023-08-30T12:21:43;3.65;;;1.20;;
26906;SDS011;14472;56.880;16.658;2023-08-30T12:24:12;2.90;;;1.55;;
26906;SDS011;14472;56.880;16.658;2023-08-30T12:26:38;2.92;;;1.40;;
26906;SDS011;14472;56.880;16.658;2023-08-30T12:29:04;2.30;;;1.40;;
26906;SDS011;14472;56.880;16.658;2023-08-30T12:31:33;2.42;;;1.27;;
26906;SDS011;14472;56.880;16.658;2023-08-30T12:33:59;1.60;;;1.30;;
26906;SDS011;14472;56.880;16.658;2023-08-30T12:36:25;2.92;;;1.45;;
26906;SDS011;14472;56.880;16.658;2023-08-30T12:38:51;1.73;;;1.38;;
26906;SDS011;14472;56.880;16.658;2023-08-30T12:41:16;3.00;;;1.38;;
26906;SDS011;14472;56.880;16.658;2023-08-30T12:43:42;1.42;;;1.30;;
26906;SDS011;14472;56.880;16.658;2023-08-30T12:46:08;2.28;;;1.25;;
26906;SDS011;14472;56.880;16.658;2023-08-30T12:48:34;2.83;;;1.33;;
26906;SDS011;14472;56.880;16.658;2023-08-30T12:50:59;2.08;;;1.20;;
26906;SDS011;14472;56.880;16.658;2023-08-30T12:53:25;3.75;;;1.48;;
26906;SDS011;14472;56.880;16.658;2023-08-30T12:55:51;4.38;;;1.42;;
26906;SDS011;14472;56.880;16.658;2023-08-30T12:58:16;2.05;;;1.35;;
26906;SDS011;14472;56.880;16.658;2023-08-30T13:00:42;1.65;;;1.45;;
26906;SDS011;14472;56.880;16.658;2023-08-30T13:03:08;2.85;;;1.40;;
26906;SDS011;14472;56.880;16.658;2023-08-30T13:05:33;1.38;;;1.27;;
26906;SDS011;14472;56.880;16.658;2023-08-30T13:08:01;1.67;;;1.25;;
26906;SDS011;14472;56.880;16.658;2023-08-30T13:10:27;1.85;;;1.10;;
26906;SDS011;14472;56.880;16.658;2023-08-30T13:12:53;1.63;;;1.23;;
26906;SDS011;14472;56.880;16.658;2023-08-30T13:15:19;4.35;;;1.42;;
26906;SDS011;14472;56.880;16.658;2023-08-30T13:17:44;2.13;;;1.23;;
26906;SDS011;14472;56.880;16.658;2023-08-30T13:20:10;2.78;;;1.23;;
26906;SDS011;14472;56.880;16.658;2023-08-30T13:22:36;3.15;;;1.48;;
26906;SDS011;14472;56.880;16.658;2023-08-30T13:25:02;2.55;;;1.45;;
26906;SDS011;14472;56.880;16.658;2023-08-30T13:27:29;2.20;;;1.30;;
26906;SDS011;14472;56.880;16.658;2023-08-30T13:29:55;1.50;;;1.40;;
26906;SDS011;14472;56.880;16.658;2023-08-30T13:32:20;2.15;;;1.35;;
26906;SDS011;14472;56.880;16.658;2023-08-30T13:34:46;4.55;;;1.55;;
26906;SDS011;14472;56.880;16.658;2023-08-30T13:37:12;2.17;;;1.65;;
26906;SDS011;14472;56.880;16.658;2023-08-30T13:39:39;2.67;;;1.50;;
26906;SDS011;14472;56.880;16.658;2023-08-30T13:42:05;2.05;;;1.52;;
26906;SDS011;14472;56.880;16.658;2023-08-30T13:44:31;2.13;;;1.20;;
26906;SDS011;14472;56.880;16.658;2023-08-30T13:46:57;2.42;;;1.50;;
26906;SDS011;14472;56.880;16.658;2023-08-30T13:49:23;2.42;;;1.30;;
26906;SDS011;14472;56.880;16.658;2023-08-30T13:51:48;2.72;;;1.50;;
26906;SDS011;14472;56.880;16.658;2023-08-30T13:54:14;2.60;;;1.50;;
26906;SDS011;14472;56.880;16.658;2023-08-30T13:56:40;1.67;;;1.20;;
26906;SDS011;14472;56.880;16.658;2023-08-30T13:59:09;1.77;;;1.20;;
26906;SDS011;14472;56.880;16.658;2023-08-30T14:01:34;3.05;;;1.40;;
26906;SDS011;14472;56.880;16.658;2023-08-30T14:04:01;3.30;;;1.42;;
26906;SDS011;14472;56.880;16.658;2023-08-30T14:06:29;2.25;;;1.55;;
26906;SDS011;14472;56.880;16.658;2023-08-30T14:08:55;1.73;;;1.40;;
26906;SDS011;14472;56.880;16.658;2023-08-30T14:11:21;4.68;;;1.60;;
26906;SDS011;14472;56.880;16.658;2023-08-30T14:13:47;5.55;;;1.73;;
26906;SDS011;14472;56.880;16.658;2023-08-30T14:16:13;2.05;;;1.45;;
26906;SDS011;14472;56.880;16.658;2023-08-30T14:18:39;2.88;;;1.35;;
26906;SDS011;14472;56.880;16.658;2023-08-30T14:21:05;3.47;;;1.33;;
26906;SDS011;14472;56.880;16.658;2023-08-30T14:23:31;3.97;;;1.67;;
26906;SDS011;14472;56.880;16.658;2023-08-30T14:28:22;4.70;;;1.80;;
26906;SDS011;14472;56.880;16.658;2023-08-30T14:30:49;3.97;;;1.58;;
26906;SDS011;14472;56.880;16.658;2023-08-30T14:33:14;4.60;;;1.67;;
26906;SDS011;14472;56.880;16.658;2023-08-30T14:35:41;2.83;;;1.45;;
26906;SDS011;14472;56.880;16.658;2023-08-30T14:38:09;4.25;;;1.60;;
26906;SDS011;14472;56.880;16.658;2023-08-30T14:40:35;2.78;;;1.33;;